createdAt,value
2022-11-17T00:00:45.516Z,7.36
2022-11-17T00:03:19.833Z,7.35
2022-11-17T00:05:52.347Z,7.35
2022-11-17T00:08:19.363Z,7.34
2022-11-17T00:10:46.588Z,7.33
2022-11-17T00:13:32.395Z,7.37
2022-11-17T00:15:59.904Z,7.38
2022-11-17T00:18:45.758Z,7.36
2022-11-17T00:21:19.917Z,7.36
2022-11-17T00:23:47.794Z,7.35
2022-11-17T00:26:26.850Z,7.34
2022-11-17T00:28:55.360Z,7.37
2022-11-17T00:31:42.189Z,7.36
2022-11-17T00:34:14.221Z,7.34
2022-11-17T00:36:47.379Z,7.33
2022-11-17T00:39:18.009Z,7.33
2022-11-17T00:41:45.394Z,7.39
2022-11-17T00:44:12.508Z,7.34
2022-11-17T00:46:40.546Z,7.35
2022-11-17T00:49:09.067Z,7.34
2022-11-17T00:51:38.115Z,7.36
2022-11-17T00:54:06.355Z,7.39
2022-11-17T00:56:33.921Z,7.37
2022-11-17T00:59:04.056Z,7.34
2022-11-17T01:01:31.622Z,7.34
2022-11-17T01:04:05.417Z,7.33
2022-11-17T01:06:36.247Z,7.29
2022-11-17T01:09:15.610Z,7.31
2022-11-17T01:11:44.167Z,7.26
2022-11-17T01:14:17.387Z,7.24
2022-11-17T01:16:45.536Z,7.29
2022-11-17T01:19:16.913Z,7.29
2022-11-17T01:21:44.324Z,7.23
2022-11-17T01:24:12.844Z,7.21
2022-11-17T01:26:42.198Z,7.18
2022-11-17T01:29:12.233Z,7.15
2022-11-17T01:31:43.402Z,7.12
2022-11-17T01:34:10.915Z,7.10
2022-11-17T01:37:01.873Z,7.05
2022-11-17T01:39:30.393Z,7.03
2022-11-17T01:42:02.225Z,7.06
2022-11-17T01:44:50.295Z,7.10
2022-11-17T01:47:20.661Z,7.07
2022-11-17T01:49:51.603Z,7.03
2022-11-17T01:52:24.801Z,6.97
2022-11-17T01:54:54.170Z,6.90
2022-11-17T01:57:29.524Z,6.89
2022-11-17T02:00:03.927Z,6.87
2022-11-17T02:02:33.498Z,6.78
2022-11-17T02:05:24.147Z,6.70
2022-11-17T02:07:54.789Z,6.57
2022-11-17T02:10:22.018Z,6.56
2022-11-17T02:12:49.690Z,6.50
2022-11-17T02:15:16.845Z,6.39
2022-11-17T02:17:49.694Z,6.32
2022-11-17T02:20:38.133Z,6.26
2022-11-17T02:23:43.174Z,6.24
2022-11-17T02:26:29.086Z,6.19
2022-11-17T02:29:05.756Z,6.17
2022-11-17T02:31:43.840Z,6.17
2022-11-17T02:34:34.632Z,6.18
2022-11-17T02:37:07.818Z,6.19
2022-11-17T02:40:01.449Z,6.26
2022-11-17T02:43:03.540Z,6.29
2022-11-17T02:45:39.354Z,6.40
2022-11-17T02:48:16.484Z,6.51
2022-11-17T02:50:48.868Z,6.53
2022-11-17T02:53:16.550Z,6.56
2022-11-17T02:55:52.429Z,6.61
2022-11-17T02:58:20.157Z,6.66
2022-11-17T03:01:19.753Z,6.69
2022-11-17T03:04:05.200Z,6.72
2022-11-17T03:06:54.232Z,6.77
2022-11-17T03:09:44.749Z,6.78
2022-11-17T03:12:33.906Z,6.82
2022-11-17T03:15:24.381Z,6.88
2022-11-17T03:18:07.739Z,6.84
2022-11-17T03:20:46.225Z,6.87
2022-11-17T03:23:25.760Z,6.88
2022-11-17T03:25:58.037Z,6.92
2022-11-17T03:28:29.829Z,6.94
2022-11-17T03:31:01.220Z,6.94
2022-11-17T03:33:29.836Z,6.93
2022-11-17T03:36:09.291Z,6.95
2022-11-17T03:38:41.318Z,6.94
2022-11-17T03:41:13.541Z,6.93
2022-11-17T03:43:43.196Z,6.92
2022-11-17T03:46:15.775Z,6.93
2022-11-17T03:48:53.705Z,6.91
2022-11-17T03:51:27.417Z,6.90
2022-11-17T03:53:55.337Z,6.90
2022-11-17T03:56:25.411Z,6.91
2022-11-17T03:59:04.298Z,6.94
2022-11-17T04:01:33.647Z,6.91
2022-11-17T04:04:01.020Z,6.88
2022-11-17T04:06:28.065Z,6.89
2022-11-17T04:08:55.427Z,6.90
2022-11-17T04:11:41.071Z,6.90
2022-11-17T04:14:27.665Z,6.89
2022-11-17T04:16:56.736Z,6.91
2022-11-17T04:19:24.016Z,6.93
2022-11-17T04:21:51.006Z,6.92
2022-11-17T04:24:18.567Z,6.92
2022-11-17T04:27:04.083Z,6.94
2022-11-17T04:29:31.443Z,6.94
2022-11-17T04:31:58.556Z,6.94
2022-11-17T04:34:25.966Z,6.94
2022-11-17T04:36:52.982Z,6.97
2022-11-17T04:39:20.335Z,6.96
2022-11-17T04:42:03.396Z,6.94
2022-11-17T04:44:32.580Z,6.91
2022-11-17T04:47:02.075Z,6.93
2022-11-17T04:49:31.839Z,6.93
2022-11-17T04:51:58.928Z,6.91
2022-11-17T04:54:26.227Z,6.90
2022-11-17T04:56:54.652Z,6.94
2022-11-17T04:59:22.373Z,6.95
2022-11-17T05:01:50.181Z,6.92
2022-11-17T05:04:39.785Z,6.91
2022-11-17T05:07:08.490Z,6.96
2022-11-17T05:09:36.260Z,6.94
2022-11-17T05:12:21.833Z,6.95
2022-11-17T05:14:52.483Z,6.94
2022-11-17T05:17:19.641Z,6.94
2022-11-17T05:19:48.382Z,6.93
2022-11-17T05:22:42.060Z,6.92
2022-11-17T05:25:09.834Z,6.95
2022-11-17T05:27:37.808Z,6.92
2022-11-17T05:30:07.311Z,6.92
2022-11-17T05:32:34.381Z,6.87
2022-11-17T05:35:01.799Z,6.86
2022-11-17T05:37:31.052Z,6.87
2022-11-17T05:39:58.400Z,6.81
2022-11-17T05:42:25.484Z,6.81
2022-11-17T05:44:52.880Z,6.75
2022-11-17T05:47:19.869Z,6.75
2022-11-17T05:49:49.392Z,6.71
2022-11-17T05:52:16.441Z,6.67
2022-11-17T05:54:43.706Z,6.64
2022-11-17T05:57:17.377Z,6.59
2022-11-17T05:59:54.980Z,6.58
2022-11-17T06:02:27.732Z,6.57
2022-11-17T06:04:54.990Z,6.54
2022-11-17T06:07:22.637Z,6.57
2022-11-17T06:09:52.411Z,6.57
2022-11-17T06:12:19.684Z,6.55
2022-11-17T06:14:48.982Z,6.58
2022-11-17T06:17:28.826Z,6.57
2022-11-17T06:20:08.631Z,6.54
2022-11-17T06:22:36.642Z,6.55
2022-11-17T06:25:05.245Z,6.53
2022-11-17T06:27:36.406Z,6.53
2022-11-17T06:30:05.493Z,6.47
2022-11-17T06:32:38.141Z,6.51
2022-11-17T06:35:07.575Z,6.48
2022-11-17T06:37:34.936Z,6.47
2022-11-17T06:40:02.015Z,6.43
2022-11-17T06:42:47.981Z,6.45
2022-11-17T06:45:17.480Z,6.46
2022-11-17T06:47:44.715Z,6.43
2022-11-17T06:50:11.785Z,6.44
2022-11-17T06:52:39.275Z,6.46
2022-11-17T06:55:08.807Z,6.52
2022-11-17T06:57:36.101Z,6.56
2022-11-17T07:00:06.115Z,6.59
2022-11-17T07:02:33.665Z,6.63
2022-11-17T07:05:03.449Z,6.64
2022-11-17T07:07:33.514Z,6.69
2022-11-17T07:10:00.600Z,6.72
2022-11-17T07:12:28.073Z,6.79
2022-11-17T07:14:55.015Z,6.82
2022-11-17T07:17:22.299Z,6.87
2022-11-17T07:19:49.266Z,6.97
2022-11-17T07:22:16.547Z,7.02
2022-11-17T07:24:43.637Z,7.07
2022-11-17T07:27:11.196Z,7.13
2022-11-17T07:29:41.600Z,7.18
2022-11-17T07:32:12.065Z,7.09
2022-11-17T07:34:39.023Z,7.10
2022-11-17T07:37:07.461Z,7.21
2022-11-17T07:39:34.498Z,7.20
2022-11-17T07:42:04.127Z,7.32
2022-11-17T07:44:31.118Z,7.40
2022-11-17T07:46:58.604Z,7.55
2022-11-17T07:49:27.047Z,7.90
2022-11-17T07:51:54.545Z,9.77
2022-11-17T07:54:21.566Z,10.71
2022-11-17T07:56:48.908Z,10.01
2022-11-17T07:59:21.018Z,9.61
2022-11-17T08:01:48.759Z,9.07
2022-11-17T08:04:18.092Z,8.66
2022-11-17T08:06:45.415Z,8.49
2022-11-17T08:09:15.889Z,8.49
2022-11-17T08:11:43.219Z,8.57
2022-11-17T08:14:10.717Z,8.90
2022-11-17T08:16:38.020Z,9.26
2022-11-17T08:19:06.256Z,9.54
2022-11-17T08:21:36.729Z,9.52
2022-11-17T08:24:03.850Z,9.39
2022-11-17T08:26:31.169Z,9.07
2022-11-17T08:28:59.098Z,8.86
2022-11-17T08:31:26.484Z,8.58
2022-11-17T08:33:53.451Z,8.42
2022-11-17T08:36:20.735Z,8.40
2022-11-17T08:38:47.741Z,8.35
2022-11-17T08:41:15.086Z,8.34
2022-11-17T08:43:44.256Z,8.38
2022-11-17T08:46:13.005Z,8.38
2022-11-17T08:48:40.506Z,8.32
2022-11-17T08:51:09.252Z,8.33
2022-11-17T08:53:36.352Z,8.28
2022-11-17T08:56:08.425Z,8.33
2022-11-17T08:58:43.722Z,8.37
2022-11-17T09:01:12.828Z,8.37
2022-11-17T09:03:42.783Z,8.41
2022-11-17T09:06:10.566Z,8.37
2022-11-17T09:08:45.539Z,8.31
2022-11-17T09:11:14.614Z,8.27
2022-11-17T09:13:42.371Z,8.22
2022-11-17T09:16:11.572Z,8.12
2022-11-17T09:18:41.142Z,8.05
2022-11-17T09:21:11.202Z,8.05
2022-11-17T09:23:40.959Z,7.91
2022-11-17T09:26:13.273Z,7.88
2022-11-17T09:28:44.272Z,7.87
2022-11-17T09:31:14.504Z,7.80
2022-11-17T09:33:42.639Z,7.84
2022-11-17T09:36:11.594Z,7.95
2022-11-17T09:38:39.669Z,8.05
2022-11-17T09:41:20.985Z,8.09
2022-11-17T09:44:12.496Z,8.13
2022-11-17T09:47:00.010Z,8.18
2022-11-17T09:49:33.117Z,8.24
2022-11-17T09:52:27.689Z,8.35
2022-11-17T09:55:33.895Z,8.39
2022-11-17T09:58:33.854Z,8.25
2022-11-17T10:01:03.242Z,8.36
2022-11-17T10:03:42.091Z,8.50
2022-11-17T10:06:27.490Z,8.51
2022-11-17T10:09:17.793Z,8.43
2022-11-17T10:11:48.301Z,8.44
2022-11-17T10:14:18.654Z,8.38
2022-11-17T10:16:57.818Z,8.45
2022-11-17T10:19:27.938Z,8.43
2022-11-17T10:22:02.807Z,8.50
2022-11-17T10:24:50.627Z,8.43
2022-11-17T10:27:17.597Z,8.37
2022-11-17T10:30:30.379Z,8.24
2022-11-17T10:33:00.062Z,8.29
2022-11-17T10:35:33.949Z,8.29
2022-11-17T10:38:02.794Z,8.33
2022-11-17T10:40:32.938Z,8.32
2022-11-17T10:43:12.216Z,8.41
2022-11-17T10:45:45.385Z,8.47
2022-11-17T10:48:31.117Z,8.51
2022-11-17T10:50:59.985Z,8.59
2022-11-17T10:53:30.061Z,8.59
2022-11-17T10:56:02.491Z,8.64
2022-11-17T10:58:32.182Z,8.67
2022-11-17T11:01:02.727Z,8.76
2022-11-17T11:03:36.420Z,8.65
2022-11-17T11:06:26.874Z,8.56
2022-11-17T11:09:16.286Z,8.43
2022-11-17T11:11:46.671Z,8.36
2022-11-17T11:14:42.375Z,8.41
2022-11-17T11:17:13.083Z,8.39
2022-11-17T11:19:43.235Z,8.39
2022-11-17T11:22:32.189Z,8.37
2022-11-17T11:25:38.079Z,8.57
2022-11-17T11:28:19.435Z,8.72
2022-11-17T11:31:25.304Z,8.85
2022-11-17T11:34:27.570Z,8.70
2022-11-17T11:37:00.031Z,8.64
2022-11-17T11:39:42.432Z,8.53
2022-11-17T11:42:32.182Z,8.50
2022-11-17T11:45:24.735Z,8.43
2022-11-17T11:47:51.691Z,8.40
2022-11-17T11:50:27.187Z,8.46
2022-11-17T11:53:11.437Z,8.39
2022-11-17T11:55:41.478Z,8.39
2022-11-17T11:58:24.931Z,8.36
2022-11-17T12:01:06.066Z,8.39
2022-11-17T12:04:01.763Z,8.24
2022-11-17T12:07:01.254Z,8.22
2022-11-17T12:09:49.320Z,8.12
2022-11-17T12:12:26.934Z,8.08
2022-11-17T12:15:20.344Z,8.12
2022-11-17T12:18:13.292Z,7.99
2022-11-17T12:20:43.303Z,7.99
2022-11-17T12:23:29.490Z,8.01
2022-11-17T12:25:58.952Z,7.95
2022-11-17T12:28:29.354Z,8.04
2022-11-17T12:31:08.253Z,8.09
2022-11-17T12:33:52.511Z,8.05
2022-11-17T12:36:31.230Z,8.04
2022-11-17T12:39:04.155Z,7.95
2022-11-17T12:41:49.657Z,7.92
2022-11-17T12:44:46.007Z,7.88
2022-11-17T12:47:18.343Z,7.87
2022-11-17T12:50:19.968Z,7.83
2022-11-17T12:53:12.214Z,7.80
2022-11-17T12:55:48.673Z,7.81
2022-11-17T12:58:24.927Z,7.81
2022-11-17T13:01:27.986Z,7.80
2022-11-17T13:03:59.525Z,7.77
2022-11-17T13:06:35.976Z,7.77
2022-11-17T13:09:12.806Z,7.73
2022-11-17T13:11:40.121Z,7.76
2022-11-17T13:14:16.113Z,7.84
2022-11-17T13:16:53.210Z,7.90
2022-11-17T13:19:37.327Z,7.95
2022-11-17T13:22:13.921Z,7.96
2022-11-17T13:24:49.062Z,7.91
2022-11-17T13:27:23.028Z,7.86
2022-11-17T13:29:51.408Z,7.82
2022-11-17T13:32:24.854Z,7.81
2022-11-17T13:34:57.806Z,7.82
2022-11-17T13:37:29.906Z,7.79
2022-11-17T13:40:19.913Z,7.72
2022-11-17T13:42:47.877Z,7.72
2022-11-17T13:45:15.942Z,7.66
2022-11-17T13:47:48.773Z,7.69
2022-11-17T13:50:29.487Z,7.71
2022-11-17T13:52:58.651Z,7.63
2022-11-17T13:55:27.254Z,7.72
2022-11-17T13:58:05.793Z,7.69
2022-11-17T14:00:34.022Z,7.78
2022-11-17T14:03:06.402Z,7.81
2022-11-17T14:05:33.916Z,7.85
2022-11-17T14:08:27.274Z,7.84
2022-11-17T14:11:12.637Z,7.73
2022-11-17T14:14:01.550Z,7.70
2022-11-17T14:16:38.218Z,7.66
2022-11-17T14:19:26.166Z,7.60
2022-11-17T14:22:09.479Z,7.57
2022-11-17T14:24:40.927Z,7.48
2022-11-17T14:27:37.345Z,7.45
2022-11-17T14:30:05.484Z,7.43
2022-11-17T14:32:35.040Z,7.39
2022-11-17T14:35:02.400Z,7.38
2022-11-17T14:37:32.268Z,7.36
2022-11-17T14:40:00.779Z,7.36
2022-11-17T14:42:32.866Z,7.34
2022-11-17T14:45:02.191Z,7.27
2022-11-17T14:47:31.575Z,7.23
2022-11-17T14:49:59.145Z,7.13
2022-11-17T14:52:26.173Z,7.13
2022-11-17T14:54:55.987Z,7.09
2022-11-17T14:57:22.966Z,7.03
2022-11-17T14:59:50.262Z,7.04
2022-11-17T15:02:17.328Z,7.04
2022-11-17T15:04:50.542Z,7.03
2022-11-17T15:07:18.363Z,6.95
2022-11-17T15:09:45.713Z,6.92
2022-11-17T15:12:12.703Z,6.93
2022-11-17T15:14:40.068Z,6.89
2022-11-17T15:17:13.934Z,6.86
2022-11-17T15:19:42.010Z,6.81
2022-11-17T15:22:09.057Z,6.83
2022-11-17T15:24:36.365Z,6.80
2022-11-17T15:27:03.664Z,6.78
2022-11-17T15:29:30.945Z,6.81
2022-11-17T15:31:57.941Z,6.74
2022-11-17T15:34:25.404Z,6.81
2022-11-17T15:36:54.651Z,6.72
2022-11-17T15:39:22.069Z,6.72
2022-11-17T15:41:50.559Z,6.74
2022-11-17T15:44:21.162Z,6.72
2022-11-17T15:46:48.329Z,6.71
2022-11-17T15:49:16.296Z,6.67
2022-11-17T15:51:43.519Z,6.61
2022-11-17T15:54:16.665Z,6.67
2022-11-17T15:56:50.997Z,6.66
2022-11-17T15:59:18.863Z,6.63
2022-11-17T16:01:49.207Z,6.58
2022-11-17T16:04:17.273Z,6.58
2022-11-17T16:06:46.068Z,6.56
2022-11-17T16:09:14.649Z,6.57
2022-11-17T16:11:42.116Z,6.58
2022-11-17T16:14:09.674Z,6.55
2022-11-17T16:16:38.416Z,6.56
2022-11-17T16:19:06.510Z,6.54
2022-11-17T16:21:34.012Z,6.57
2022-11-17T16:24:02.374Z,6.62
2022-11-17T16:26:30.015Z,6.56
2022-11-17T16:28:58.350Z,6.52
2022-11-17T16:31:30.582Z,6.52
2022-11-17T16:34:08.249Z,6.53
2022-11-17T16:36:38.889Z,6.50
2022-11-17T16:39:08.522Z,6.48
2022-11-17T16:41:40.150Z,6.44
2022-11-17T16:44:12.104Z,6.44
2022-11-17T16:46:42.359Z,6.44
2022-11-17T16:49:12.893Z,6.44
2022-11-17T16:51:43.591Z,6.48
2022-11-17T16:54:12.640Z,6.47
2022-11-17T16:56:41.017Z,6.47
2022-11-17T16:59:11.490Z,6.41
2022-11-17T17:01:39.986Z,6.43
2022-11-17T17:04:11.172Z,6.43
2022-11-17T17:06:43.381Z,6.43
2022-11-17T17:09:13.024Z,6.39
2022-11-17T17:11:41.161Z,6.44
2022-11-17T17:14:12.448Z,6.39
2022-11-17T17:16:40.155Z,6.34
2022-11-17T17:19:09.617Z,6.31
2022-11-17T17:21:39.476Z,6.24
2022-11-17T17:24:08.157Z,6.21
2022-11-17T17:26:37.161Z,6.10
2022-11-17T17:29:05.920Z,6.04
2022-11-17T17:31:36.038Z,5.98
2022-11-17T17:34:06.430Z,5.94
2022-11-17T17:36:35.326Z,5.91
2022-11-17T17:39:03.917Z,5.86
2022-11-17T17:41:34.543Z,5.83
2022-11-17T17:44:04.293Z,5.79
2022-11-17T17:46:35.800Z,5.75
2022-11-17T17:49:03.880Z,5.68
2022-11-17T17:51:31.502Z,5.65
2022-11-17T17:54:02.218Z,5.68
2022-11-17T17:56:30.946Z,5.78
2022-11-17T17:58:59.489Z,5.77
2022-11-17T18:01:29.512Z,5.80
2022-11-17T18:04:01.814Z,5.79
2022-11-17T18:06:29.492Z,5.78
2022-11-17T18:08:58.831Z,5.75
2022-11-17T18:11:29.681Z,5.73
2022-11-17T18:13:57.922Z,5.75
2022-11-17T18:16:27.866Z,5.75
2022-11-17T18:18:59.589Z,5.75
2022-11-17T18:21:30.025Z,5.70
2022-11-17T18:24:00.793Z,5.70
2022-11-17T18:26:30.491Z,5.65
2022-11-17T18:29:07.213Z,5.65
2022-11-17T18:31:37.553Z,5.62
2022-11-17T18:34:09.587Z,5.59
2022-11-17T18:36:40.121Z,5.57
2022-11-17T18:39:08.470Z,5.53
2022-11-17T18:41:37.408Z,5.50
2022-11-17T18:44:05.941Z,5.48
2022-11-17T18:46:34.552Z,5.47
2022-11-17T18:49:05.214Z,5.41
2022-11-17T18:51:35.001Z,5.35
2022-11-17T18:54:05.009Z,5.34
2022-11-17T18:56:34.796Z,5.34
2022-11-17T18:59:23.636Z,5.38
2022-11-17T19:01:51.310Z,5.42
2022-11-17T19:04:22.142Z,5.41
2022-11-17T19:06:54.944Z,5.38
2022-11-17T19:09:30.050Z,5.35
2022-11-17T19:11:59.043Z,5.34
2022-11-17T19:14:29.156Z,5.32
2022-11-17T19:16:57.198Z,5.29
2022-11-17T19:19:27.288Z,5.28
2022-11-17T19:21:55.946Z,5.33
2022-11-17T19:24:24.226Z,5.31
2022-11-17T19:26:56.431Z,5.35
2022-11-17T19:29:26.822Z,5.30
2022-11-17T19:31:55.121Z,5.34
2022-11-17T19:34:25.975Z,5.34
2022-11-17T19:36:56.174Z,5.36
2022-11-17T19:39:24.689Z,5.36
2022-11-17T19:41:53.948Z,5.37
2022-11-17T19:44:21.941Z,5.41
2022-11-17T19:46:50.125Z,5.42
2022-11-17T19:49:18.517Z,5.44
2022-11-17T19:51:46.609Z,5.39
2022-11-17T19:54:16.809Z,5.32
2022-11-17T19:56:44.720Z,5.30
2022-11-17T19:59:16.907Z,5.27
2022-11-17T20:01:46.497Z,5.27
2022-11-17T20:04:14.981Z,5.30
2022-11-17T20:06:42.581Z,5.31
2022-11-17T20:09:13.751Z,5.38
2022-11-17T20:11:42.626Z,5.30
2022-11-17T20:14:11.289Z,5.28
2022-11-17T20:16:39.425Z,5.28
2022-11-17T20:19:07.843Z,5.27
2022-11-17T20:21:35.479Z,5.28
2022-11-17T20:24:05.729Z,5.31
2022-11-17T20:26:36.280Z,5.31
2022-11-17T20:29:05.235Z,5.33
2022-11-17T20:31:36.791Z,5.37
2022-11-17T20:34:05.927Z,5.36
2022-11-17T20:36:35.813Z,5.36
2022-11-17T20:39:06.727Z,5.37
2022-11-17T20:41:35.216Z,5.31
2022-11-17T20:44:05.566Z,5.34
2022-11-17T20:46:34.569Z,5.29
2022-11-17T20:49:02.745Z,5.32
2022-11-17T20:51:31.086Z,5.34
2022-11-17T20:53:58.723Z,5.31
2022-11-17T20:56:26.301Z,5.33
2022-11-17T20:58:56.422Z,5.31
2022-11-17T21:01:25.460Z,5.30
2022-11-17T21:03:55.740Z,5.25
2022-11-17T21:06:23.801Z,5.31
2022-11-17T21:08:51.910Z,5.29
2022-11-17T21:11:39.542Z,5.29
2022-11-17T21:14:12.470Z,5.29
2022-11-17T21:16:46.695Z,5.28
2022-11-17T21:19:14.659Z,5.29
2022-11-17T21:21:42.947Z,5.30
2022-11-17T21:24:11.337Z,5.30
2022-11-17T21:26:38.499Z,5.37
2022-11-17T21:29:08.610Z,5.42
2022-11-17T21:31:35.884Z,5.40
2022-11-17T21:34:06.071Z,5.38
2022-11-17T21:36:34.849Z,5.41
2022-11-17T21:39:02.880Z,5.41
2022-11-17T21:41:35.559Z,5.41
2022-11-17T21:44:03.726Z,5.44
2022-11-17T21:46:33.275Z,5.42
2022-11-17T21:49:01.430Z,5.41
2022-11-17T21:51:34.302Z,5.44
2022-11-17T21:54:03.537Z,5.45
2022-11-17T21:56:32.148Z,5.49
2022-11-17T21:59:01.896Z,5.50
2022-11-17T22:01:29.490Z,5.48
2022-11-17T22:03:57.206Z,5.53
2022-11-17T22:06:25.690Z,5.54
2022-11-17T22:08:57.758Z,5.55
2022-11-17T22:11:37.338Z,5.59
2022-11-17T22:14:12.627Z,5.56
2022-11-17T22:16:42.131Z,5.57
2022-11-17T22:19:10.770Z,5.58
2022-11-17T22:21:38.591Z,5.59
2022-11-17T22:24:07.652Z,5.60
2022-11-17T22:26:38.481Z,5.59
2022-11-17T22:29:08.096Z,5.55
2022-11-17T22:31:35.371Z,5.59
2022-11-17T22:34:09.972Z,5.57
2022-11-17T22:36:40.661Z,5.54
2022-11-17T22:39:09.507Z,5.57
2022-11-17T22:41:36.624Z,5.59
2022-11-17T22:44:04.721Z,5.57
2022-11-17T22:46:31.965Z,5.60
2022-11-17T22:49:01.561Z,5.59
2022-11-17T22:51:47.152Z,5.58
2022-11-17T22:54:14.492Z,5.58
2022-11-17T22:56:41.512Z,5.62
2022-11-17T22:59:09.178Z,5.58
2022-11-17T23:01:38.874Z,5.60
2022-11-17T23:04:06.651Z,5.62
2022-11-17T23:06:33.731Z,5.64
2022-11-17T23:09:03.424Z,5.63
2022-11-17T23:11:36.950Z,5.62
2022-11-17T23:14:06.196Z,5.61
2022-11-17T23:16:33.313Z,5.60
2022-11-17T23:19:00.849Z,5.58
2022-11-17T23:21:27.821Z,5.60
2022-11-17T23:23:55.376Z,5.60
2022-11-17T23:26:22.610Z,5.65
2022-11-17T23:28:52.873Z,5.67
2022-11-17T23:31:20.494Z,5.66
2022-11-17T23:33:50.383Z,5.67
2022-11-17T23:36:22.238Z,5.66
2022-11-17T23:38:51.167Z,5.69
2022-11-17T23:41:20.704Z,5.68
2022-11-17T23:43:53.118Z,5.69
2022-11-17T23:46:22.448Z,5.70
2022-11-17T23:48:50.287Z,5.69
2022-11-17T23:51:22.677Z,5.68
2022-11-17T23:53:50.204Z,5.70
2022-11-17T23:56:19.568Z,5.70
2022-11-17T23:58:47.030Z,5.67
